createdAt,value
2018-08-17T00:02:22.711Z,19.80
2018-08-17T00:04:57.433Z,18.50
2018-08-17T00:07:31.893Z,20.97
2018-08-17T00:10:06.669Z,22.93
2018-08-17T00:12:41.236Z,19.87
2018-08-17T00:15:15.773Z,20.27
2018-08-17T00:17:50.383Z,19.57
2018-08-17T00:20:25.076Z,19.20
2018-08-17T00:22:59.689Z,20.33
2018-08-17T00:25:46.264Z,21.83
2018-08-17T00:28:20.947Z,20.50
2018-08-17T00:30:55.468Z,20.73
2018-08-17T00:33:30.433Z,20.13
2018-08-17T00:36:05.157Z,23.10
2018-08-17T00:38:39.792Z,21.87
2018-08-17T00:41:14.381Z,22.27
2018-08-17T00:43:54.621Z,21.93
2018-08-17T00:49:41.715Z,21.83
2018-08-17T00:52:16.330Z,22.93
2018-08-17T00:54:51.126Z,23.87
2018-08-17T00:57:25.658Z,21.63
2018-08-17T01:00:00.312Z,22.77
2018-08-17T01:02:42.269Z,24.60
2018-08-17T01:05:30.528Z,24.67
2018-08-17T01:08:11.096Z,24.67
2018-08-17T01:10:45.520Z,22.00
2018-08-17T01:13:20.265Z,23.47
2018-08-17T01:15:54.923Z,20.50
2018-08-17T01:18:29.622Z,23.10
2018-08-17T01:21:04.182Z,21.03
2018-08-17T01:23:38.932Z,20.73
2018-08-17T01:26:13.561Z,20.47
2018-08-17T01:28:48.124Z,21.20
2018-08-17T01:31:22.856Z,23.63
2018-08-17T01:33:57.360Z,21.83
2018-08-17T01:36:32.133Z,23.13
2018-08-17T01:39:08.270Z,21.20
2018-08-17T01:41:42.893Z,20.37
2018-08-17T01:44:17.397Z,24.60
2018-08-17T01:46:52.061Z,18.83
2018-08-17T01:49:26.569Z,20.03
2018-08-17T01:52:01.317Z,31.80
2018-08-17T01:54:36.130Z,21.87
2018-08-17T01:57:10.752Z,19.80
2018-08-17T01:59:45.845Z,19.20
2018-08-17T02:02:20.359Z,19.10
2018-08-17T02:04:54.920Z,19.37
2018-08-17T02:07:29.642Z,20.50
2018-08-17T02:10:05.161Z,22.13
2018-08-17T02:12:39.911Z,19.57
2018-08-17T02:15:14.544Z,18.07
2018-08-17T02:17:49.142Z,19.13
2018-08-17T02:20:23.795Z,19.73
2018-08-17T02:22:58.382Z,20.90
2018-08-17T02:25:33.011Z,21.50
2018-08-17T02:28:07.632Z,20.67
2018-08-17T02:30:42.285Z,20.37
2018-08-17T02:33:17.008Z,21.43
2018-08-17T02:35:51.643Z,21.60
2018-08-17T02:38:26.293Z,22.53
2018-08-17T02:41:01.031Z,24.10
2018-08-17T02:43:35.693Z,23.27
2018-08-17T02:46:10.289Z,24.23
2018-08-17T02:48:45.001Z,24.47
2018-08-17T02:51:19.596Z,27.17
2018-08-17T02:53:54.161Z,27.17
2018-08-17T02:56:28.809Z,26.87
2018-08-17T02:59:03.408Z,26.07
2018-08-17T03:01:38.129Z,31.17
2018-08-17T03:04:12.720Z,33.73
2018-08-17T03:06:47.373Z,30.67
2018-08-17T03:09:22.078Z,33.20
2018-08-17T03:11:56.689Z,33.77
2018-08-17T03:14:31.312Z,33.90
2018-08-17T03:17:05.848Z,32.50
2018-08-17T03:19:40.499Z,31.60
2018-08-17T03:22:15.189Z,33.50
2018-08-17T03:24:49.846Z,28.63
2018-08-17T03:27:24.420Z,30.40
2018-08-17T03:29:59.023Z,29.00
2018-08-17T03:32:33.653Z,27.23
2018-08-17T03:35:08.320Z,26.50
2018-08-17T03:37:42.932Z,28.30
2018-08-17T03:40:17.677Z,27.83
2018-08-17T03:42:52.321Z,28.07
2018-08-17T03:45:26.864Z,27.53
2018-08-17T03:48:01.556Z,27.90
2018-08-17T03:50:36.174Z,23.60
2018-08-17T03:53:10.852Z,24.87
2018-08-17T03:55:45.337Z,24.50
2018-08-17T03:58:19.884Z,23.30
2018-08-17T04:00:54.757Z,27.27
2018-08-17T04:03:29.337Z,25.87
2018-08-17T04:06:03.888Z,25.80
2018-08-17T04:08:38.772Z,27.30
2018-08-17T04:11:13.433Z,27.67
2018-08-17T04:13:48.064Z,22.17
2018-08-17T04:16:22.856Z,27.37
2018-08-17T04:19:00.429Z,22.70
2018-08-17T04:21:35.043Z,24.07
2018-08-17T04:24:28.520Z,24.87
2018-08-17T04:27:03.736Z,21.57
2018-08-17T04:29:38.428Z,21.03
2018-08-17T04:32:13.007Z,22.67
2018-08-17T04:34:47.575Z,21.53
2018-08-17T04:37:22.237Z,20.77
2018-08-17T04:39:57.096Z,20.53
2018-08-17T04:42:31.733Z,17.70
2018-08-17T04:45:06.916Z,20.32
2018-08-17T04:47:41.244Z,17.00
2018-08-17T04:50:15.696Z,16.90
2018-08-17T04:52:50.280Z,16.90
2018-08-17T04:55:24.748Z,16.87
2018-08-17T04:58:00.165Z,16.02
2018-08-17T05:00:34.745Z,14.13
2018-08-17T05:03:09.391Z,16.57
2018-08-17T05:05:43.982Z,15.23
2018-08-17T05:08:18.746Z,14.60
2018-08-17T05:10:53.325Z,15.73
2018-08-17T05:13:27.933Z,17.63
2018-08-17T05:16:02.516Z,15.50
2018-08-17T05:18:37.173Z,16.80
2018-08-17T05:21:11.797Z,15.33
2018-08-17T05:23:46.354Z,13.40
2018-08-17T05:26:21.008Z,14.47
2018-08-17T05:28:55.528Z,14.70
2018-08-17T05:31:30.092Z,11.80
2018-08-17T05:34:04.802Z,12.93
2018-08-17T05:36:39.512Z,11.10
2018-08-17T05:39:14.111Z,15.03
2018-08-17T05:41:48.804Z,12.27
2018-08-17T05:44:23.427Z,11.30
2018-08-17T05:46:58.080Z,9.87
2018-08-17T05:49:32.718Z,9.73
2018-08-17T05:55:06.289Z,7.23
2018-08-17T05:57:41.004Z,8.63
2018-08-17T06:00:15.652Z,6.65
2018-08-17T06:02:50.327Z,8.90
2018-08-17T06:05:25.284Z,8.60
2018-08-17T06:07:59.981Z,7.30
2018-08-17T06:10:34.925Z,9.83
2018-08-17T06:13:09.495Z,7.13
2018-08-17T06:15:44.024Z,7.70
2018-08-17T06:18:18.713Z,10.27
2018-08-17T06:20:53.347Z,14.30
2018-08-17T06:23:27.945Z,18.73
2018-08-17T06:26:02.786Z,17.37
2018-08-17T06:28:37.452Z,13.80
2018-08-17T06:31:32.149Z,11.17
2018-08-17T06:34:06.847Z,10.30
2018-08-17T06:36:41.614Z,10.77
2018-08-17T06:39:16.181Z,13.03
2018-08-17T06:41:50.801Z,12.10
2018-08-17T06:44:25.484Z,12.73
2018-08-17T06:47:00.249Z,16.03
2018-08-17T06:49:34.789Z,15.27
2018-08-17T06:52:09.411Z,20.03
2018-08-17T06:54:44.300Z,14.47
2018-08-17T06:57:18.835Z,17.00
2018-08-17T06:59:53.361Z,21.10
2018-08-17T07:02:28.064Z,16.33
2018-08-17T07:05:02.622Z,14.20
2018-08-17T07:07:37.472Z,10.23
2018-08-17T07:10:13.150Z,14.93
2018-08-17T07:12:47.980Z,10.43
2018-08-17T07:15:22.628Z,10.83
2018-08-17T07:18:15.549Z,11.77
2018-08-17T07:20:50.058Z,10.27
2018-08-17T07:23:24.576Z,10.90
2018-08-17T07:25:59.272Z,9.77
2018-08-17T07:28:34.016Z,9.33
2018-08-17T07:31:08.593Z,10.40
2018-08-17T07:33:43.930Z,10.20
2018-08-17T07:36:18.650Z,10.07
2018-08-17T07:38:53.589Z,10.43
2018-08-17T07:41:28.157Z,9.80
2018-08-17T07:44:03.225Z,10.90
2018-08-17T07:46:58.360Z,9.47
2018-08-17T07:49:33.567Z,10.47
2018-08-17T07:52:08.293Z,12.50
2018-08-17T07:54:45.153Z,9.97
2018-08-17T07:57:19.849Z,9.53
2018-08-17T07:59:54.244Z,8.87
2018-08-17T08:02:28.677Z,7.50
2018-08-17T08:05:03.145Z,8.27
2018-08-17T08:07:37.828Z,8.90
2018-08-17T08:10:12.614Z,10.03
2018-08-17T08:12:47.347Z,9.13
2018-08-17T08:15:22.017Z,8.17
2018-08-17T08:17:56.900Z,11.80
2018-08-17T08:20:33.896Z,11.50
2018-08-17T08:23:19.705Z,9.43
2018-08-17T08:25:54.699Z,7.43
2018-08-17T08:28:34.420Z,9.77
2018-08-17T08:31:09.096Z,8.47
2018-08-17T08:36:43.075Z,7.87
2018-08-17T08:39:18.592Z,8.17
2018-08-17T08:41:53.161Z,7.77
2018-08-17T08:44:31.792Z,8.50
2018-08-17T08:47:06.367Z,8.27
2018-08-17T08:49:45.644Z,6.77
2018-08-17T08:52:20.265Z,7.07
2018-08-17T08:57:53.818Z,8.80
2018-08-17T09:00:28.427Z,11.70
2018-08-17T09:03:10.580Z,11.03
2018-08-17T09:05:45.085Z,11.20
2018-08-17T09:08:19.863Z,12.37
2018-08-17T09:10:54.432Z,12.20
2018-08-17T09:13:28.988Z,12.30
2018-08-17T09:16:03.618Z,10.73
2018-08-17T09:18:38.297Z,10.07
2018-08-17T09:21:12.954Z,9.47
2018-08-17T09:23:47.517Z,7.30
2018-08-17T09:26:22.077Z,8.37
2018-08-17T09:28:56.677Z,6.93
2018-08-17T09:31:31.252Z,7.87
2018-08-17T09:34:13.236Z,7.67
2018-08-17T09:36:47.659Z,6.30
2018-08-17T09:39:22.152Z,6.83
2018-08-17T09:41:56.957Z,6.57
2018-08-17T09:44:31.427Z,5.53
2018-08-17T09:47:06.079Z,6.73
2018-08-17T09:49:40.760Z,7.07
2018-08-17T09:52:15.204Z,5.00
2018-08-17T09:54:49.844Z,6.33
2018-08-17T09:57:24.450Z,5.43
2018-08-17T09:59:58.932Z,7.27
2018-08-17T10:02:38.845Z,8.83
2018-08-17T10:05:19.172Z,16.87
2018-08-17T10:07:59.119Z,18.70
2018-08-17T10:10:33.713Z,24.57
2018-08-17T10:13:08.258Z,21.83
2018-08-17T10:15:42.783Z,20.50
2018-08-17T10:18:17.581Z,21.13
2018-08-17T10:20:52.282Z,21.00
2018-08-17T10:23:26.861Z,16.17
2018-08-17T10:26:02.397Z,17.43
2018-08-17T10:28:37.283Z,13.53
2018-08-17T10:31:12.536Z,15.57
2018-08-17T10:33:48.465Z,17.30
2018-08-17T10:36:22.918Z,16.90
2018-08-17T10:38:57.581Z,15.90
2018-08-17T10:41:32.274Z,21.53
2018-08-17T10:44:06.948Z,22.13
2018-08-17T10:46:53.881Z,22.27
2018-08-17T10:52:27.313Z,31.67
2018-08-17T10:55:02.006Z,28.33
2018-08-17T10:57:36.468Z,29.93
2018-08-17T11:00:14.573Z,30.00
2018-08-17T11:02:49.061Z,29.67
2018-08-17T11:05:23.976Z,26.70
2018-08-17T11:07:58.489Z,26.47
2018-08-17T11:10:33.173Z,25.87
2018-08-17T11:13:07.813Z,24.40
2018-08-17T11:15:42.332Z,26.53
2018-08-17T11:18:16.860Z,24.80
2018-08-17T11:20:52.656Z,24.07
2018-08-17T11:23:27.285Z,26.00
2018-08-17T11:26:02.164Z,26.70
2018-08-17T11:31:37.160Z,26.20
2018-08-17T11:34:12.265Z,24.67
2018-08-17T11:36:46.954Z,22.40
2018-08-17T11:39:21.548Z,23.27
2018-08-17T11:41:56.129Z,24.97
2018-08-17T11:44:30.796Z,25.43
2018-08-17T11:47:05.472Z,25.87
2018-08-17T11:49:40.150Z,30.70
2018-08-17T11:52:14.776Z,31.37
2018-08-17T11:54:49.340Z,25.03
2018-08-17T11:57:23.999Z,24.40
2018-08-17T11:59:58.585Z,25.53
2018-08-17T12:02:33.333Z,26.97
2018-08-17T12:05:08.673Z,31.67
2018-08-17T12:07:44.084Z,29.07
2018-08-17T12:10:18.557Z,31.27
2018-08-17T12:12:53.283Z,31.77
2018-08-17T12:15:27.860Z,29.60
2018-08-17T12:18:02.581Z,26.00
2018-08-17T12:20:37.289Z,24.60
2018-08-17T12:23:11.860Z,28.73
2018-08-17T12:25:51.377Z,26.45
2018-08-17T12:28:27.662Z,26.10
2018-08-17T12:31:02.201Z,23.10
2018-08-17T12:33:37.001Z,24.60
2018-08-17T12:36:11.608Z,24.90
2018-08-17T12:38:46.229Z,23.13
2018-08-17T12:41:20.813Z,25.90
2018-08-17T12:43:55.465Z,26.90
2018-08-17T12:46:30.134Z,30.23
2018-08-17T12:49:04.717Z,27.63
2018-08-17T12:51:39.231Z,30.47
2018-08-17T12:54:17.889Z,35.60
2018-08-17T12:56:53.181Z,37.30
2018-08-17T12:59:27.918Z,37.93
2018-08-17T13:02:02.416Z,37.97
2018-08-17T13:04:37.112Z,35.07
2018-08-17T13:07:11.841Z,40.10
2018-08-17T13:09:46.570Z,34.87
2018-08-17T13:12:21.163Z,41.70
2018-08-17T13:14:55.769Z,37.87
2018-08-17T13:17:46.153Z,39.80
2018-08-17T13:20:21.062Z,38.93
2018-08-17T13:22:55.713Z,38.33
2018-08-17T13:25:30.421Z,29.50
2018-08-17T13:28:04.964Z,23.37
2018-08-17T13:30:39.451Z,20.83
2018-08-17T13:33:14.085Z,19.87
2018-08-17T13:35:48.564Z,19.83
2018-08-17T13:38:23.292Z,17.13
2018-08-17T13:40:57.724Z,18.93
2018-08-17T13:43:32.332Z,19.80
2018-08-17T13:46:07.188Z,15.33
2018-08-17T13:48:41.693Z,16.40
2018-08-17T13:51:21.073Z,17.20
2018-08-17T13:53:58.669Z,13.30
2018-08-17T13:59:32.007Z,12.53
2018-08-17T14:05:06.688Z,11.87
2018-08-17T14:07:41.384Z,14.17
2018-08-17T14:13:19.409Z,12.53
2018-08-17T14:15:54.172Z,11.73
2018-08-17T14:18:28.809Z,13.27
2018-08-17T14:21:03.233Z,11.57
2018-08-17T14:23:37.773Z,13.37
2018-08-17T14:26:12.753Z,13.97
2018-08-17T14:28:47.850Z,15.33
2018-08-17T14:31:22.294Z,14.70
2018-08-17T14:33:56.795Z,14.23
2018-08-17T14:36:31.492Z,12.47
2018-08-17T14:39:06.808Z,12.37
2018-08-17T14:41:55.942Z,11.73
2018-08-17T14:44:30.993Z,11.97
2018-08-17T14:47:05.761Z,11.07
2018-08-17T14:49:40.279Z,10.00
2018-08-17T14:52:14.865Z,9.77
2018-08-17T14:54:49.352Z,10.13
2018-08-17T14:57:24.059Z,9.20
2018-08-17T14:59:58.545Z,8.07
2018-08-17T15:02:32.941Z,7.83
2018-08-17T15:05:08.891Z,6.27
2018-08-17T15:07:43.589Z,5.37
2018-08-17T15:10:18.100Z,9.30
2018-08-17T15:12:52.734Z,9.43
2018-08-17T15:15:27.187Z,7.77
2018-08-17T15:18:02.261Z,6.30
2018-08-17T15:20:36.590Z,7.47
2018-08-17T15:23:11.261Z,5.50
2018-08-17T15:25:45.720Z,7.50
2018-08-17T15:28:20.297Z,5.87
2018-08-17T15:30:54.779Z,6.43
2018-08-17T15:33:29.420Z,7.67
2018-08-17T15:36:04.052Z,6.60
2018-08-17T15:38:38.568Z,5.00
2018-08-17T15:41:12.951Z,6.13
2018-08-17T15:43:47.308Z,11.57
2018-08-17T15:46:21.699Z,8.57
2018-08-17T15:48:57.040Z,6.30
2018-08-17T15:51:31.581Z,7.33
2018-08-17T15:54:06.040Z,8.80
2018-08-17T15:56:40.598Z,7.70
2018-08-17T15:59:15.205Z,9.77
2018-08-17T16:01:49.765Z,7.57
2018-08-17T16:04:24.388Z,12.30
2018-08-17T16:06:59.024Z,11.43
2018-08-17T16:09:33.655Z,13.23
2018-08-17T16:21:05.340Z,9.87
2018-08-17T16:23:43.048Z,11.83
2018-08-17T16:26:20.930Z,9.13
2018-08-17T16:28:56.203Z,11.68
2018-08-17T16:34:30.220Z,7.37
2018-08-17T16:37:04.796Z,7.27
2018-08-17T16:39:44.716Z,8.63
2018-08-17T16:42:25.365Z,10.33
2018-08-17T16:45:00.196Z,12.50
2018-08-17T16:47:34.905Z,10.03
2018-08-17T16:50:09.921Z,8.63
2018-08-17T16:52:44.522Z,7.07
2018-08-17T16:55:19.216Z,7.63
2018-08-17T16:57:53.785Z,7.97
2018-08-17T17:00:28.545Z,9.47
2018-08-17T17:03:03.197Z,6.97
2018-08-17T17:05:37.837Z,5.27
2018-08-17T17:08:12.559Z,8.97
2018-08-17T17:10:47.201Z,8.23
2018-08-17T17:13:21.863Z,7.77
2018-08-17T17:15:56.820Z,7.20
2018-08-17T17:18:31.429Z,8.30
2018-08-17T17:21:06.073Z,8.03
2018-08-17T17:23:46.873Z,6.30
2018-08-17T17:29:21.844Z,6.57
2018-08-17T17:31:56.959Z,5.73
2018-08-17T17:34:31.578Z,6.43
2018-08-17T17:37:06.216Z,7.57
2018-08-17T17:39:40.688Z,4.37
2018-08-17T17:42:15.272Z,8.90
2018-08-17T17:44:50.018Z,5.37
2018-08-17T17:47:24.644Z,7.63
2018-08-17T17:49:59.245Z,7.07
2018-08-17T17:52:33.725Z,6.03
2018-08-17T17:55:08.201Z,6.40
2018-08-17T17:57:42.780Z,11.30
2018-08-17T18:00:17.464Z,5.40
2018-08-17T18:02:52.160Z,5.30
2018-08-17T18:05:26.712Z,7.00
2018-08-17T18:08:06.873Z,5.93
2018-08-17T18:10:41.505Z,7.03
2018-08-17T18:13:16.152Z,4.07
2018-08-17T18:15:50.760Z,6.10
2018-08-17T18:18:25.365Z,6.40
2018-08-17T18:20:59.956Z,6.13
2018-08-17T18:23:34.560Z,5.67
2018-08-17T18:26:12.571Z,6.93
2018-08-17T18:28:46.984Z,6.90
2018-08-17T18:31:21.583Z,4.80
2018-08-17T18:33:56.011Z,9.23
2018-08-17T18:36:30.844Z,4.63
2018-08-17T18:39:08.049Z,6.57
2018-08-17T18:41:42.613Z,7.30
2018-08-17T18:44:17.085Z,7.97
2018-08-17T18:46:51.720Z,6.90
2018-08-17T18:49:26.458Z,6.57
2018-08-17T18:52:01.144Z,5.07
2018-08-17T18:54:36.068Z,8.33
2018-08-17T18:57:10.470Z,10.13
2018-08-17T18:59:44.949Z,6.87
2018-08-17T19:02:19.517Z,4.30
2018-08-17T19:04:54.158Z,5.27
2018-08-17T19:07:28.720Z,4.53
2018-08-17T19:10:03.264Z,9.20
2018-08-17T19:12:38.050Z,6.97
2018-08-17T19:15:13.369Z,8.10
2018-08-17T19:17:47.961Z,6.43
2018-08-17T19:20:22.568Z,4.40
2018-08-17T19:22:57.144Z,11.10
2018-08-17T19:25:31.779Z,5.33
2018-08-17T19:28:06.495Z,5.63
2018-08-17T19:30:41.229Z,7.00
2018-08-17T19:33:15.895Z,8.17
2018-08-17T19:35:50.580Z,6.83
2018-08-17T19:38:25.149Z,6.80
2018-08-17T19:40:59.691Z,6.90
2018-08-17T19:43:34.253Z,12.70
2018-08-17T19:46:09.092Z,7.07
2018-08-17T19:48:43.481Z,10.53
2018-08-17T19:51:19.109Z,11.43
2018-08-17T19:53:53.685Z,5.67
2018-08-17T19:56:28.233Z,7.47
2018-08-17T19:59:02.892Z,9.07
2018-08-17T20:01:37.584Z,9.35
2018-08-17T20:04:12.345Z,8.60
2018-08-17T20:06:47.005Z,8.07
2018-08-17T20:09:21.731Z,10.63
2018-08-17T20:11:56.716Z,7.87
2018-08-17T20:14:31.389Z,11.30
2018-08-17T20:17:06.169Z,13.30
2018-08-17T20:19:45.958Z,9.33
2018-08-17T20:22:21.943Z,9.13
2018-08-17T20:24:56.756Z,10.77
2018-08-17T20:27:31.231Z,14.67
2018-08-17T20:30:11.036Z,9.10
2018-08-17T20:32:46.331Z,6.87
2018-08-17T20:35:21.341Z,8.93
2018-08-17T20:38:02.849Z,9.20
2018-08-17T20:40:43.352Z,12.90
2018-08-17T20:43:18.037Z,9.63
2018-08-17T20:45:52.612Z,10.37
2018-08-17T20:48:27.521Z,8.33
2018-08-17T20:51:06.637Z,9.63
2018-08-17T20:53:41.146Z,8.93
2018-08-17T20:56:15.771Z,7.97
2018-08-17T20:58:50.417Z,10.53
2018-08-17T21:01:25.108Z,7.37
2018-08-17T21:04:22.075Z,9.07
2018-08-17T21:06:56.651Z,9.77
2018-08-17T21:09:31.169Z,10.20
2018-08-17T21:12:05.832Z,6.43
2018-08-17T21:14:40.348Z,10.47
2018-08-17T21:17:15.060Z,8.00
2018-08-17T21:19:49.753Z,10.53
2018-08-17T21:22:24.752Z,10.97
2018-08-17T21:24:59.281Z,10.93
2018-08-17T21:27:34.056Z,10.23
2018-08-17T21:30:09.117Z,9.70
2018-08-17T21:32:43.792Z,11.20
2018-08-17T21:35:18.498Z,7.83
2018-08-17T21:37:54.222Z,9.93
2018-08-17T21:40:29.773Z,9.83
2018-08-17T21:43:04.188Z,8.20
2018-08-17T21:45:38.757Z,6.97
2018-08-17T21:48:18.336Z,8.10
2018-08-17T21:50:53.228Z,10.60
2018-08-17T21:53:27.904Z,11.47
2018-08-17T21:56:02.433Z,12.80
2018-08-17T21:58:36.869Z,10.63
2018-08-17T22:01:11.385Z,10.13
2018-08-17T22:03:45.869Z,10.90
2018-08-17T22:06:20.477Z,13.37
2018-08-17T22:08:54.900Z,8.97
2018-08-17T22:11:35.084Z,9.77
2018-08-17T22:14:09.532Z,10.77
2018-08-17T22:16:44.216Z,13.07
2018-08-17T22:19:30.181Z,10.70
2018-08-17T22:22:04.685Z,12.37
2018-08-17T22:24:54.997Z,13.50
2018-08-17T22:27:30.008Z,8.95
2018-08-17T22:30:06.389Z,8.17
2018-08-17T22:32:40.890Z,11.70
2018-08-17T22:35:15.671Z,8.77
2018-08-17T22:37:50.500Z,8.23
2018-08-17T22:40:25.200Z,10.37
2018-08-17T22:42:59.752Z,12.03
2018-08-17T22:45:34.349Z,12.20
2018-08-17T22:48:08.851Z,10.27
2018-08-17T22:50:43.482Z,15.60
2018-08-17T22:53:18.057Z,13.93
2018-08-17T22:55:52.701Z,15.80
2018-08-17T22:58:27.993Z,13.47
2018-08-17T23:01:02.731Z,12.80
2018-08-17T23:03:41.600Z,13.93
2018-08-17T23:06:16.393Z,11.13
2018-08-17T23:08:51.172Z,16.77
2018-08-17T23:11:34.320Z,15.10
2018-08-17T23:14:16.012Z,12.10
2018-08-17T23:16:50.625Z,12.60
2018-08-17T23:19:25.362Z,13.93
2018-08-17T23:21:59.963Z,15.50
2018-08-17T23:24:34.694Z,12.20
2018-08-17T23:27:09.372Z,12.67
2018-08-17T23:29:43.933Z,12.63
2018-08-17T23:32:18.461Z,15.17
2018-08-17T23:34:52.908Z,16.53
2018-08-17T23:37:27.438Z,16.37
2018-08-17T23:40:01.958Z,13.73
2018-08-17T23:42:36.580Z,14.70
2018-08-17T23:45:12.721Z,11.50
2018-08-17T23:47:47.511Z,13.93
2018-08-17T23:53:21.407Z,18.93
2018-08-17T23:55:56.192Z,15.05
2018-08-17T23:58:30.701Z,19.77
